地図

経路データ

SID SEASON NUMBER BASIN SUBBASIN NAME ISO_TIME NATURE LAT LON WMO_WIND WMO_PRES WMO_AGENCY TRACK_TYPE DIST2LAND LANDFALL IFLAG USA_AGENCY USA_ATCF_ID USA_LAT USA_LON USA_RECORD USA_STATUS USA_WIND USA_PRES USA_SSHS USA_R34_NE USA_R34_SE USA_R34_SW USA_R34_NW USA_R50_NE USA_R50_SE USA_R50_SW USA_R50_NW USA_R64_NE USA_R64_SE USA_R64_SW USA_R64_NW USA_POCI USA_ROCI USA_RMW USA_EYE TOKYO_LAT TOKYO_LON TOKYO_GRADE TOKYO_WIND TOKYO_PRES TOKYO_R50_DIR TOKYO_R50_LONG TOKYO_R50_SHORT TOKYO_R30_DIR TOKYO_R30_LONG TOKYO_R30_SHORT TOKYO_LAND CMA_LAT CMA_LON CMA_CAT CMA_WIND CMA_PRES HKO_LAT HKO_LON HKO_CAT HKO_WIND HKO_PRES NEWDELHI_LAT NEWDELHI_LON NEWDELHI_GRADE NEWDELHI_WIND NEWDELHI_PRES NEWDELHI_CI NEWDELHI_DP NEWDELHI_POCI REUNION_LAT REUNION_LON REUNION_TYPE REUNION_WIND REUNION_PRES REUNION_TNUM REUNION_CI REUNION_RMW REUNION_R34_NE REUNION_R34_SE REUNION_R34_SW REUNION_R34_NW REUNION_R50_NE REUNION_R50_SE REUNION_R50_SW REUNION_R50_NW REUNION_R64_NE REUNION_R64_SE REUNION_R64_SW REUNION_R64_NW BOM_LAT BOM_LON BOM_TYPE BOM_WIND BOM_PRES BOM_TNUM BOM_CI BOM_RMW BOM_R34_NE BOM_R34_SE BOM_R34_SW BOM_R34_NW BOM_R50_NE BOM_R50_SE BOM_R50_SW BOM_R50_NW BOM_R64_NE BOM_R64_SE BOM_R64_SW BOM_R64_NW BOM_ROCI BOM_POCI BOM_EYE BOM_POS_METHOD BOM_PRES_METHOD NADI_LAT NADI_LON NADI_CAT NADI_WIND NADI_PRES WELLINGTON_LAT WELLINGTON_LON WELLINGTON_WIND WELLINGTON_PRES DS824_LAT DS824_LON DS824_STAGE DS824_WIND DS824_PRES TD9636_LAT TD9636_LON TD9636_STAGE TD9636_WIND TD9636_PRES TD9635_LAT TD9635_LON TD9635_WIND TD9635_PRES TD9635_ROCI NEUMANN_LAT NEUMANN_LON NEUMANN_CLASS NEUMANN_WIND NEUMANN_PRES MLC_LAT MLC_LON MLC_CLASS MLC_WIND MLC_PRES USA_GUST BOM_GUST BOM_GUST_PER REUNION_GUST REUNION_GUST_PER USA_SEAHGT USA_SEARAD_NE USA_SEARAD_SE USA_SEARAD_SW USA_SEARAD_NW STORM_SPEED STORM_DIR
1949247N17254 1949 69 EP MM NOT_NAMED 1949-09-03 12:00:00 TS 17.3000 -106.300 45 hurdat_epa main 265 262 O________O____ hurdat_epa EP031949 17.3000 -106.300 TS 45 0 17.3000 -106.300 TC 45 4 317
1949247N17254 1949 69 EP MM NOT_NAMED 1949-09-03 15:00:00 TS 17.4550 -106.455 main 261 260 P________P____ EP031949 17.4550 -106.455 TS 45 0 17.4550 -106.455 TC 45 4 317
1949247N17254 1949 69 EP MM NOT_NAMED 1949-09-03 18:00:00 TS 17.6000 -106.600 45 hurdat_epa main 260 260 O________O____ hurdat_epa EP031949 17.6000 -106.600 TS 45 0 17.6000 -106.600 TC 45 4 318
1949247N17254 1949 69 EP MM NOT_NAMED 1949-09-03 21:00:00 TS 17.7350 -106.723 main 260 253 P________P____ EP031949 17.7350 -106.723 TS 45 0 17.7350 -106.723 TC 45 4 328
1949247N17254 1949 69 EP MM NOT_NAMED 1949-09-04 00:00:00 TS 17.9000 -106.800 45 hurdat_epa main 253 238 O________O____ hurdat_epa EP031949 17.9000 -106.800 TS 45 0 17.9000 -106.800 TC 45 4 349
1949247N17254 1949 69 EP MM NOT_NAMED 1949-09-04 03:00:00 TS 18.1425 -106.808 main 238 214 P________P____ EP031949 18.1425 -106.808 TS 45 0 18.1425 -106.808 TC 45 5 2
1949247N17254 1949 69 EP MM NOT_NAMED 1949-09-04 06:00:00 TS 18.4000 -106.800 45 hurdat_epa main 214 199 O________O____ hurdat_epa EP031949 18.4000 -106.800 TS 45 0 18.4000 -106.800 TC 45 5 355
1949247N17254 1949 69 EP MM NOT_NAMED 1949-09-04 09:00:00 TS 18.6300 -106.850 main 199 195 P________P____ EP031949 18.6300 -106.850 TS 45 0 18.6300 -106.850 TC 45 4 347
1949247N17254 1949 69 EP MM NOT_NAMED 1949-09-04 12:00:00 TS 18.8000 -106.900 45 hurdat_epa main 195 190 O________O____ hurdat_epa EP031949 18.8000 -106.900 TS 45 0 18.8000 -106.900 TC 45 2 349
1949247N17254 1949 69 EP MM NOT_NAMED 1949-09-04 15:00:00 TS 18.8725 -106.900 main 190 190 P________P____ EP031949 18.8725 -106.900 TS 45 0 18.8725 -106.900 TC 45 1 0
1949247N17254 1949 69 EP MM NOT_NAMED 1949-09-04 18:00:00 TS 18.9000 -106.900 45 hurdat_epa main 190 184 O________O____ hurdat_epa EP031949 18.9000 -106.900 TS 45 0 18.9000 -106.900 TC 45 1 331
1949247N17254 1949 69 EP MM NOT_NAMED 1949-09-04 21:00:00 TS 18.9575 -106.942 main 184 184 P________P____ EP031949 18.9575 -106.942 TS 45 0 18.9575 -106.942 TC 45 1 317
1949247N17254 1949 69 EP MM NOT_NAMED 1949-09-05 00:00:00 TS 19.0000 -107.000 45 hurdat_epa main 192 192 O________O____ hurdat_epa EP031949 19.0000 -107.000 TS 45 0 19.0000 -107.000 TC 45 1 292
1949247N17254 1949 69 EP MM NOT_NAMED 1949-09-05 03:00:00 TS 19.0000 -107.050 main 201 201 P________P____ EP031949 19.0000 -107.050 TS 45 0 19.0000 -107.050 TC 45 1 270
1949247N17254 1949 69 EP MM NOT_NAMED 1949-09-05 06:00:00 TS 19.0000 -107.100 45 hurdat_epa main 201 201 O________O____ hurdat_epa EP031949 19.0000 -107.100 TS 45 0 19.0000 -107.100 TC 45 1 283
1949247N17254 1949 69 EP MM NOT_NAMED 1949-09-05 09:00:00 TS 19.0124 -107.105 main 201 195 P________P____ EP031949 19.0124 -107.105 TS 45 0 19.0124 -107.105 TC 45 1 317
1949247N17254 1949 69 EP MM NOT_NAMED 1949-09-05 12:00:00 TS 19.1000 -107.200 45 hurdat_epa main 204 204 O________O____ hurdat_epa EP031949 19.1000 -107.200 TS 45 0 19.1000 -107.200 TC 45 5 310
1949247N17254 1949 69 EP MM NOT_NAMED 1949-09-05 15:00:00 TS 19.3125 -107.490 main 223 223 P________P____ EP031949 19.3125 -107.490 TS 45 0 19.3125 -107.490 TC 45 8 307
1949247N17254 1949 69 EP MM NOT_NAMED 1949-09-05 18:00:00 TS 19.6000 -107.900 45 hurdat_epa main 246 246 O________O____ hurdat_epa EP031949 19.6000 -107.900 TS 45 0 19.6000 -107.900 TC 45 10 306
1949247N17254 1949 69 EP MM NOT_NAMED 1949-09-05 21:00:00 TS 19.9001 -108.357 main 287 285 P________P____ EP031949 19.9001 -108.357 TS 45 0 19.9001 -108.357 TC 45 10 305
1949247N17254 1949 69 EP MM NOT_NAMED 1949-09-06 00:00:00 TS 20.2000 -108.800 45 hurdat_epa main 319 288 O________O____ hurdat_epa EP031949 20.2000 -108.800 TS 45 0 20.2000 -108.800 TC 45 9 308
1949247N17254 1949 69 EP MM NOT_NAMED 1949-09-06 03:00:00 TS 20.4573 -109.123 main 277 249 P________P____ EP031949 20.4573 -109.123 TS 45 0 20.4573 -109.123 TC 45 8 312
1949247N17254 1949 69 EP MM NOT_NAMED 1949-09-06 06:00:00 TS 20.7000 -109.400 45 hurdat_epa main 249 223 O________O____ hurdat_epa EP031949 20.7000 -109.400 TS 45 0 20.7000 -109.400 TC 45 7 312
1949247N17254 1949 69 EP MM NOT_NAMED 1949-09-06 09:00:00 TS 20.9274 -109.685 main 223 190 P________P____ EP031949 20.9274 -109.685 TS 45 0 20.9274 -109.685 TC 45 8 312
1949247N17254 1949 69 EP MM NOT_NAMED 1949-09-06 12:00:00 TS 21.2000 -110.000 45 hurdat_epa main 190 159 O________O____ hurdat_epa EP031949 21.2000 -110.000 TS 45 0 21.2000 -110.000 TC 45 9 315
1949247N17254 1949 69 EP MM NOT_NAMED 1949-09-06 15:00:00 TS 21.5700 -110.378 main 151 129 P________P____ EP031949 21.5700 -110.378 TS 45 0 21.5700 -110.378 TC 45 11 317
1949247N17254 1949 69 EP MM NOT_NAMED 1949-09-06 18:00:00 TS 22.0000 -110.800 45 hurdat_epa main 129 128 O________O____ hurdat_epa EP031949 22.0000 -110.800 TS 45 0 22.0000 -110.800 TC 45 12 318
1949247N17254 1949 69 EP MM NOT_NAMED 1949-09-06 21:00:00 TS 22.4423 -111.228 main 135 135 P________P____ EP031949 22.4423 -111.228 TS 45 0 22.4423 -111.228 TC 45 12 317
1949247N17254 1949 69 EP MM NOT_NAMED 1949-09-07 00:00:00 TS 22.9000 -111.700 45 hurdat_epa main 143 133 O________O____ hurdat_epa EP031949 22.9000 -111.700 TS 45 0 22.9000 -111.700 TC 45 13 314
1949247N17254 1949 69 EP MM NOT_NAMED 1949-09-07 03:00:00 TS 23.3425 -112.243 main 137 120 P________P____ EP031949 23.3425 -112.243 TS 45 0 23.3425 -112.243 TC 45 14 312
1949247N17254 1949 69 EP MM NOT_NAMED 1949-09-07 06:00:00 TS 23.8000 -112.800 45 hurdat_epa main 123 120 O________O____ hurdat_epa EP031949 23.8000 -112.800 TS 45 0 23.8000 -112.800 TC 45 14 314
1949247N17254 1949 69 EP MM NOT_NAMED 1949-09-07 09:00:00 TS 24.3150 -113.330 main 124 124 P________P____ EP031949 24.3150 -113.330 TS 45 0 24.3150 -113.330 TC 45 14 318
1949247N17254 1949 69 EP MM NOT_NAMED 1949-09-07 12:00:00 TS 24.8000 -113.800 45 hurdat_epa main 161 161 O________O____ hurdat_epa EP031949 24.8000 -113.800 TS 45 0 24.8000 -113.800 TC 45 12 318
1949247N17254 1949 69 EP MM NOT_NAMED 1949-09-07 15:00:00 TS 25.1722 -114.173 main 177 161 P________P____ EP031949 25.1722 -114.173 TS 45 0 25.1722 -114.173 TC 45 9 318
1949247N17254 1949 69 EP MM NOT_NAMED 1949-09-07 18:00:00 TS 25.5000 -114.500 45 hurdat_epa main 161 155 O________O____ hurdat_epa EP031949 25.5000 -114.500 TS 45 0 25.5000 -114.500 TC 45 9 316
1949247N17254 1949 69 EP MM NOT_NAMED 1949-09-07 21:00:00 TS 25.7974 -114.851 main 161 137 P________P____ EP031949 25.7974 -114.851 TS 45 0 25.7974 -114.851 TC 45 9 318
1949247N17254 1949 69 EP MM NOT_NAMED 1949-09-08 00:00:00 TS 26.2000 -115.200 45 hurdat_epa main 137 111 O________O____ hurdat_epa EP031949 26.2000 -115.200 TS 45 0 26.2000 -115.200 TC 45 13 329
1949247N17254 1949 69 EP MM NOT_NAMED 1949-09-08 03:00:00 TS 26.8775 -115.564 main 107 81 P________P____ EP031949 26.8775 -115.564 TS 45 0 26.8775 -115.564 TC 45 15 336
1949247N17254 1949 69 EP MM NOT_NAMED 1949-09-08 06:00:00 TS 27.6000 -115.900 45 hurdat_epa main 89 88 O________O____ hurdat_epa EP031949 27.6000 -115.900 TS 45 0 27.6000 -115.900 TC 45 15 337
1949247N17254 1949 69 EP MM NOT_NAMED 1949-09-08 09:00:00 TS 28.2200 -116.202 main 125 125 P________P____ EP031949 28.2200 -116.202 TS 45 0 28.2200 -116.202 TC 45 11 336
1949247N17254 1949 69 EP MM NOT_NAMED 1949-09-08 12:00:00 TS 28.6000 -116.400 45 hurdat_epa main 146 146 O________O____ hurdat_epa EP031949 28.6000 -116.400 TS 45 0 28.6000 -116.400 TC 45 4 331
1949247N17254 1949 69 EP MM NOT_NAMED 1949-09-08 15:00:00 TS 28.5899 -116.438 main 146 146 P________P____ EP031949 28.5899 -116.438 TS 45 0 28.5899 -116.438 TC 45 2 172
1949247N17254 1949 69 EP MM NOT_NAMED 1949-09-08 18:00:00 TS 28.4000 -116.400 45 hurdat_epa main 152 148 O________O____ hurdat_epa EP031949 28.4000 -116.400 TS 45 0 28.4000 -116.400 TC 45 3 171
1949247N17254 1949 69 EP MM NOT_NAMED 1949-09-08 21:00:00 TS 28.2925 -116.400 main 148 144 P________P____ EP031949 28.2925 -116.400 TS 45 0 28.2925 -116.400 TC 45 2 172
1949247N17254 1949 69 EP MM NOT_NAMED 1949-09-09 00:00:00 TS 28.2000 -116.400 45 hurdat_epa main 144 141 O________O____ hurdat_epa EP031949 28.2000 -116.400 TS 45 0 28.2000 -116.400 TC 45 2 0
1949247N17254 1949 69 EP MM NOT_NAMED 1949-09-09 03:00:00 TS 28.1425 -116.392 main 141 141 P________P____ EP031949 28.1425 -116.392 TS 45 0 28.1425 -116.392 TC 45 1 0
1949247N17254 1949 69 EP MM NOT_NAMED 1949-09-09 06:00:00 TS 28.1000 -116.400 45 hurdat_epa main 141 141 O________O____ hurdat_epa EP031949 28.1000 -116.400 TS 45 0 28.1000 -116.400 TC 45 1 202
1949247N17254 1949 69 EP MM NOT_NAMED 1949-09-09 09:00:00 TS 28.0525 -116.440 main 141 139 P________P____ EP031949 28.0525 -116.440 TS 45 0 28.0525 -116.440 TC 45 1 220
1949247N17254 1949 69 EP MM NOT_NAMED 1949-09-09 12:00:00 TS 28.0000 -116.500 45 hurdat_epa main 148 O________O____ hurdat_epa EP031949 28.0000 -116.500 TS 45 0 28.0000 -116.500 TC 45 1 228

IBTrACS Databaseについて

本データベースは、米国NOAAが公開する1842年以降の世界の熱帯低気圧のベストトラックデータアーカイブInternational Best Track Archive for Climate Stewardship (IBTrACS)を、ウェブで閲覧しやすい形式に変換したものです。

最終更新日:2021-11-26